Time;durP1;ratioP1;P1;durP2;ratioP2;P2;SDS_P1;SDS_P2;PMS_P1;PMS_P2;Temp;Humidity;BMP_temperature;BMP_pressure;BME280_temperature;BME280_humidity;BME280_pressure;Samples;Min_cycle;Max_cycle;Signal;HPM_P1;HPM_P2
2023/12/04 00:00:49;;;;;;;7.93;6.10;;;2.70;99.90;;;;;;5076718;28;20185;-67
2023/12/04 00:03:14;;;;;;;9.03;6.20;;;2.70;99.90;;;;;;5076319;28;20185;-68
2023/12/04 00:05:43;;;;;;;10.10;6.37;;;2.70;99.90;;;;;;5074054;28;20184;-67
2023/12/04 00:08:11;;;;;;;8.17;6.00;;;2.70;99.90;;;;;;5082378;28;20203;-68
2023/12/04 00:10:37;;;;;;;9.33;6.80;;;2.60;99.90;;;;;;5074083;28;20197;-68
2023/12/04 00:13:04;;;;;;;8.67;6.30;;;2.70;99.90;;;;;;5074507;28;20199;-68
2023/12/04 00:15:32;;;;;;;10.20;7.03;;;2.70;99.90;;;;;;5074322;28;20200;-68
2023/12/04 00:17:58;;;;;;;9.50;7.07;;;2.60;99.90;;;;;;5073885;28;20234;-67
2023/12/04 00:20:26;;;;;;;9.77;6.77;;;2.70;99.90;;;;;;5073853;28;20181;-68
2023/12/04 00:22:51;;;;;;;9.57;6.67;;;2.70;99.90;;;;;;5074233;28;20220;-68
2023/12/04 00:25:17;;;;;;;9.60;6.80;;;2.60;99.90;;;;;;5091386;28;20176;-69
2023/12/04 00:27:42;;;;;;;8.27;6.50;;;2.60;99.90;;;;;;5072808;28;20197;-69
2023/12/04 00:30:08;;;;;;;7.77;6.00;;;2.60;99.90;;;;;;5062704;28;20196;-68
2023/12/04 00:32:34;;;;;;;8.93;6.53;;;2.60;99.90;;;;;;5073828;28;20173;-67
2023/12/04 00:35:00;;;;;;;9.67;6.37;;;2.60;99.90;;;;;;5073359;28;20695;-68
2023/12/04 00:37:27;;;;;;;9.00;6.67;;;2.60;99.90;;;;;;5073767;28;20181;-68
2023/12/04 00:39:54;;;;;;;9.57;6.60;;;2.60;99.90;;;;;;5094062;28;20184;-68
2023/12/04 00:42:27;;;;;;;9.63;6.90;;;2.60;99.90;;;;;;5075625;28;20176;-69
2023/12/04 00:44:55;;;;;;;9.33;6.17;;;2.60;99.90;;;;;;5073829;28;20204;-68
2023/12/04 00:47:25;;;;;;;7.87;5.83;;;2.60;99.90;;;;;;5077438;28;20267;-68
2023/12/04 00:49:55;;;;;;;8.50;6.07;;;2.60;99.90;;;;;;5077755;28;20210;-68
2023/12/04 00:52:21;;;;;;;8.23;6.10;;;2.50;99.90;;;;;;5077197;28;20169;-68
2023/12/04 00:54:47;;;;;;;9.33;6.47;;;2.60;99.90;;;;;;5078020;28;20216;-68
2023/12/04 00:57:14;;;;;;;8.30;6.00;;;2.60;99.90;;;;;;5077703;28;20189;-68
2023/12/04 00:59:42;;;;;;;9.87;6.27;;;2.50;99.90;;;;;;5074208;28;20448;-68
2023/12/04 01:02:10;;;;;;;7.90;6.20;;;2.50;99.90;;;;;;5074178;28;20200;-67
2023/12/04 01:04:41;;;;;;;10.03;6.70;;;2.50;99.90;;;;;;5070172;28;20199;-68
2023/12/04 01:07:10;;;;;;;7.57;6.00;;;2.50;99.90;;;;;;5076584;28;20204;-68
2023/12/04 01:09:36;;;;;;;10.10;6.97;;;2.50;99.90;;;;;;5082912;28;20188;-68
2023/12/04 01:12:03;;;;;;;8.70;6.57;;;2.50;99.90;;;;;;5081007;28;20196;-65
2023/12/04 01:14:31;;;;;;;8.93;6.40;;;2.50;99.90;;;;;;5077238;28;20275;-69
2023/12/04 01:16:59;;;;;;;8.30;6.00;;;2.50;99.90;;;;;;5089534;28;20276;-68
2023/12/04 01:19:24;;;;;;;9.63;6.83;;;2.50;99.90;;;;;;5077206;28;20201;-69
2023/12/04 01:21:50;;;;;;;9.90;6.90;;;2.50;99.90;;;;;;5077004;28;20203;-69
2023/12/04 01:24:16;;;;;;;10.23;6.80;;;2.50;99.90;;;;;;5076517;28;20277;-68
2023/12/04 01:26:41;;;;;;;9.83;7.07;;;2.50;99.90;;;;;;5076772;28;20196;-67
2023/12/04 01:29:07;;;;;;;10.23;6.97;;;2.50;99.90;;;;;;5076637;28;20180;-68
2023/12/04 01:31:35;;;;;;;8.23;6.27;;;2.50;99.90;;;;;;5073617;28;20213;-68
2023/12/04 01:34:06;;;;;;;8.33;6.23;;;2.50;99.90;;;;;;5076959;28;20165;-69
2023/12/04 01:36:32;;;;;;;9.30;6.20;;;2.50;99.90;;;;;;5076063;28;20185;-67
2023/12/04 01:38:58;;;;;;;8.53;6.17;;;2.50;99.90;;;;;;5076841;28;20196;-68
2023/12/04 01:41:25;;;;;;;8.60;6.27;;;2.50;99.90;;;;;;5076325;28;20168;-68
2023/12/04 01:43:51;;;;;;;8.93;6.20;;;2.50;99.90;;;;;;5071860;28;20174;-68
2023/12/04 01:46:21;;;;;;;9.03;5.83;;;2.50;99.90;;;;;;5076457;28;20259;-68
2023/12/04 01:48:49;;;;;;;8.10;5.97;;;2.50;99.90;;;;;;5094021;28;20185;-68
2023/12/04 01:51:20;;;;;;;9.23;6.60;;;2.50;99.90;;;;;;5080540;28;20212;-68
2023/12/04 01:53:47;;;;;;;8.27;5.77;;;2.50;99.90;;;;;;5069317;28;20177;-68
2023/12/04 01:56:14;;;;;;;8.17;5.83;;;2.50;99.90;;;;;;5076371;28;20181;-67
2023/12/04 01:58:40;;;;;;;7.40;5.60;;;2.50;99.90;;;;;;5076440;28;20196;-68
2023/12/04 02:01:09;;;;;;;7.97;5.67;;;2.50;99.90;;;;;;5076508;28;20187;-68
2023/12/04 02:03:37;;;;;;;8.23;6.07;;;2.50;99.90;;;;;;5076208;28;20211;-68
2023/12/04 02:06:06;;;;;;;8.63;6.60;;;2.50;99.90;;;;;;5073033;28;20192;-68
2023/12/04 02:08:32;;;;;;;8.37;6.63;;;2.50;99.90;;;;;;5074404;28;20197;-68
2023/12/04 02:11:02;;;;;;;9.30;6.27;;;2.50;99.90;;;;;;5075967;28;20196;-68
2023/12/04 02:13:30;;;;;;;8.73;6.33;;;2.50;99.90;;;;;;5075842;28;20190;-69
2023/12/04 02:16:02;;;;;;;8.83;6.17;;;2.50;99.90;;;;;;5075887;28;20203;-68
2023/12/04 02:18:32;;;;;;;9.10;6.80;;;2.50;99.90;;;;;;5075937;28;20181;-68
2023/12/04 02:20:59;;;;;;;8.73;6.57;;;2.50;99.90;;;;;;5075286;28;20180;-68
2023/12/04 02:23:28;;;;;;;8.17;6.20;;;2.40;99.90;;;;;;5075550;28;20190;-68
2023/12/04 02:26:00;;;;;;;9.37;6.57;;;2.50;99.90;;;;;;5082898;28;20275;-68
2023/12/04 02:28:34;;;;;;;9.70;7.00;;;2.50;99.90;;;;;;5064818;28;20209;-68
2023/12/04 02:31:04;;;;;;;8.53;6.43;;;2.50;99.90;;;;;;5071865;28;20205;-68
2023/12/04 02:33:31;;;;;;;8.43;6.17;;;2.50;99.90;;;;;;5056332;28;20184;-68
2023/12/04 02:36:00;;;;;;;10.33;7.10;;;2.40;99.90;;;;;;5073118;28;20208;-68
2023/12/04 02:38:27;;;;;;;8.70;6.30;;;2.50;99.90;;;;;;5067999;28;20185;-68
2023/12/04 02:40:55;;;;;;;9.77;6.93;;;2.40;99.90;;;;;;5061084;28;20243;-68
2023/12/04 02:43:21;;;;;;;8.67;6.40;;;2.40;99.90;;;;;;5083622;28;20181;-67
2023/12/04 02:45:51;;;;;;;9.83;7.17;;;2.40;99.90;;;;;;5075346;28;20191;-68
2023/12/04 02:48:17;;;;;;;11.03;7.03;;;2.40;99.90;;;;;;5075443;28;20203;-68
2023/12/04 02:50:47;;;;;;;9.33;7.00;;;2.40;99.90;;;;;;5072595;28;20209;-68
2023/12/04 02:53:13;;;;;;;10.00;6.80;;;2.40;99.90;;;;;;5076207;28;20287;-69
2023/12/04 02:55:38;;;;;;;8.73;6.17;;;2.30;99.90;;;;;;5075587;28;20253;-68
2023/12/04 02:58:06;;;;;;;7.70;6.03;;;2.30;99.90;;;;;;5092256;28;20173;-69
2023/12/04 03:00:34;;;;;;;10.47;6.60;;;2.40;99.90;;;;;;5072103;28;20236;-69
2023/12/04 03:02:59;;;;;;;9.27;6.57;;;2.30;99.90;;;;;;5055520;28;20177;-68
2023/12/04 03:05:25;;;;;;;8.67;6.47;;;2.30;99.90;;;;;;5055224;28;20208;-68
2023/12/04 03:07:51;;;;;;;8.80;6.90;;;2.30;99.90;;;;;;5046833;28;20210;-68
2023/12/04 03:10:16;;;;;;;9.43;6.60;;;2.30;99.90;;;;;;5075045;28;20200;-68
2023/12/04 03:12:44;;;;;;;9.13;6.47;;;2.30;99.90;;;;;;5075216;28;20191;-68
2023/12/04 03:15:11;;;;;;;9.33;6.33;;;2.30;99.90;;;;;;5075656;28;20211;-68
2023/12/04 03:17:44;;;;;;;8.30;5.87;;;2.30;99.90;;;;;;5055343;28;20376;-68
2023/12/04 03:20:10;;;;;;;9.03;6.47;;;2.20;99.90;;;;;;5072384;28;20201;-68
2023/12/04 03:22:41;;;;;;;7.73;5.70;;;2.30;99.90;;;;;;5072040;28;20174;-68
2023/12/04 03:25:07;;;;;;;8.57;5.87;;;2.30;99.90;;;;;;5076594;28;20226;-69
2023/12/04 03:27:35;;;;;;;8.10;5.77;;;2.30;99.90;;;;;;5074568;28;20219;-68
2023/12/04 03:30:00;;;;;;;8.23;5.97;;;2.30;99.90;;;;;;5071057;28;20201;-68
2023/12/04 03:32:26;;;;;;;8.00;6.27;;;2.30;99.90;;;;;;5071980;28;20189;-68
2023/12/04 03:34:54;;;;;;;9.13;6.27;;;2.30;99.90;;;;;;5084244;28;20192;-68
2023/12/04 03:37:22;;;;;;;8.60;5.90;;;2.20;99.90;;;;;;5071821;28;20273;-70
2023/12/04 03:39:50;;;;;;;8.50;6.57;;;2.20;99.90;;;;;;5071081;28;20230;-68
2023/12/04 03:42:15;;;;;;;9.07;6.80;;;2.20;99.90;;;;;;5071038;28;20208;-68
2023/12/04 03:44:43;;;;;;;9.53;7.03;;;2.20;99.90;;;;;;5074597;28;20168;-68
2023/12/04 03:47:09;;;;;;;11.67;7.67;;;2.30;99.90;;;;;;5074301;28;20173;-68
2023/12/04 03:49:37;;;;;;;9.63;7.27;;;2.20;99.90;;;;;;5074230;28;20308;-69
2023/12/04 03:52:03;;;;;;;9.73;7.40;;;2.20;99.90;;;;;;5072305;28;20208;-68
2023/12/04 03:54:28;;;;;;;10.07;7.10;;;2.20;99.90;;;;;;5074343;28;20227;-68
2023/12/04 03:56:54;;;;;;;10.67;7.03;;;2.20;99.90;;;;;;5072961;28;20176;-68
2023/12/04 03:59:20;;;;;;;10.87;7.50;;;2.20;99.90;;;;;;5089167;28;20192;-68
2023/12/04 04:01:45;;;;;;;11.80;8.07;;;2.10;99.90;;;;;;5074200;28;20197;-68
2023/12/04 04:04:13;;;;;;;10.77;7.60;;;2.20;99.90;;;;;;5074517;28;20177;-68
2023/12/04 04:06:41;;;;;;;9.93;7.23;;;2.10;99.90;;;;;;5074585;28;20246;-68
2023/12/04 04:09:09;;;;;;;11.90;7.57;;;2.10;99.90;;;;;;5074043;28;20172;-68
2023/12/04 04:11:37;;;;;;;9.87;6.87;;;2.10;99.90;;;;;;5075261;28;20184;-69
2023/12/04 04:14:02;;;;;;;10.07;7.20;;;2.10;99.90;;;;;;5060765;28;20224;-69
2023/12/04 04:16:30;;;;;;;9.80;7.30;;;2.10;99.90;;;;;;5073880;28;20200;-68
2023/12/04 04:18:58;;;;;;;11.50;8.07;;;2.10;99.90;;;;;;5074569;28;20209;-68
2023/12/04 04:21:24;;;;;;;10.00;7.63;;;2.10;99.90;;;;;;5077377;28;20176;-68
2023/12/04 04:23:54;;;;;;;10.80;7.57;;;2.10;99.90;;;;;;5078168;28;20242;-68
2023/12/04 04:26:22;;;;;;;9.87;7.50;;;2.10;99.90;;;;;;5077340;28;20246;-67
2023/12/04 04:28:48;;;;;;;10.47;7.30;;;2.10;99.90;;;;;;5077633;28;20187;-68
2023/12/04 04:31:15;;;;;;;10.53;7.73;;;2.00;99.90;;;;;;5077380;28;20212;-68
2023/12/04 04:33:41;;;;;;;13.40;8.77;;;2.00;99.90;;;;;;5084878;28;20334;-70
2023/12/04 04:36:12;;;;;;;11.20;8.00;;;2.00;99.90;;;;;;5077836;28;20235;-68
2023/12/04 04:38:41;;;;;;;10.37;7.40;;;2.00;99.90;;;;;;5081805;28;20204;-68
2023/12/04 04:41:07;;;;;;;12.47;7.30;;;2.00;99.90;;;;;;5077256;28;20184;-68
2023/12/04 04:43:35;;;;;;;9.60;7.17;;;2.00;99.90;;;;;;5077561;28;20176;-69
2023/12/04 04:46:00;;;;;;;10.50;7.50;;;2.00;99.90;;;;;;5094866;28;20269;-68
2023/12/04 04:48:26;;;;;;;11.60;8.07;;;2.00;99.90;;;;;;5079183;28;20169;-68
2023/12/04 04:50:52;;;;;;;10.43;8.00;;;2.00;99.90;;;;;;5111620;28;20296;-68
2023/12/04 04:53:17;;;;;;;9.73;7.20;;;2.00;99.90;;;;;;5077201;28;20263;-68
2023/12/04 04:55:48;;;;;;;10.13;7.53;;;2.10;99.90;;;;;;5070679;28;20179;-68
2023/12/04 04:58:16;;;;;;;10.83;7.70;;;2.10;99.90;;;;;;5077245;28;20169;-67
2023/12/04 05:00:43;;;;;;;13.37;7.30;;;2.10;99.90;;;;;;5077274;28;20173;-68
2023/12/04 05:03:09;;;;;;;9.13;7.10;;;2.10;99.90;;;;;;5087554;28;20200;-68
2023/12/04 05:05:37;;;;;;;10.47;7.60;;;2.10;99.90;;;;;;5077531;28;20259;-70
2023/12/04 05:08:03;;;;;;;12.27;8.23;;;2.10;99.90;;;;;;5077378;28;20177;-69
2023/12/04 05:10:30;;;;;;;10.40;7.93;;;2.10;99.90;;;;;;5077414;28;20246;-68
2023/12/04 05:12:58;;;;;;;10.53;7.47;;;2.10;99.90;;;;;;5077203;28;20180;-68
2023/12/04 05:15:26;;;;;;;10.83;7.30;;;2.10;99.90;;;;;;5076596;28;20185;-68
2023/12/04 05:17:52;;;;;;;9.10;6.73;;;2.10;99.90;;;;;;5074213;28;20173;-68
2023/12/04 05:20:20;;;;;;;10.97;7.87;;;2.10;99.90;;;;;;5077098;28;20856;-68
2023/12/04 05:22:48;;;;;;;9.53;7.50;;;2.10;99.90;;;;;;5076872;28;20189;-68
2023/12/04 05:25:14;;;;;;;10.37;7.60;;;2.10;99.90;;;;;;5074357;28;20181;-69
2023/12/04 05:27:40;;;;;;;10.60;7.53;;;2.10;99.90;;;;;;5067164;28;20281;-69
2023/12/04 05:30:08;;;;;;;10.87;7.90;;;2.10;99.90;;;;;;5076753;28;20205;-68
2023/12/04 05:32:34;;;;;;;11.80;8.67;;;2.10;99.90;;;;;;5072976;28;20188;-68
2023/12/04 05:34:59;;;;;;;11.67;8.30;;;2.10;99.90;;;;;;5076212;28;20191;-68
2023/12/04 05:37:25;;;;;;;11.67;7.93;;;2.10;99.90;;;;;;5076534;28;20254;-68
2023/12/04 05:39:55;;;;;;;10.83;7.63;;;2.10;99.90;;;;;;5076614;28;20201;-71
2023/12/04 05:42:21;;;;;;;10.63;7.70;;;2.10;99.90;;;;;;5076491;28;20211;-68
2023/12/04 05:44:48;;;;;;;10.33;7.87;;;2.10;99.90;;;;;;5080509;28;20228;-70
2023/12/04 05:47:14;;;;;;;11.07;8.13;;;2.10;99.90;;;;;;5076813;28;20196;-70
2023/12/04 05:49:42;;;;;;;11.07;8.50;;;2.10;99.90;;;;;;5076647;28;20234;-69
2023/12/04 05:52:13;;;;;;;10.90;7.73;;;2.10;99.90;;;;;;5075930;28;20271;-69
2023/12/04 05:54:43;;;;;;;11.73;8.50;;;2.10;99.90;;;;;;5075236;28;20244;-69
2023/12/04 05:57:09;;;;;;;13.33;9.40;;;2.10;99.90;;;;;;5073953;28;20238;-68
2023/12/04 05:59:37;;;;;;;10.93;8.27;;;2.10;99.90;;;;;;5076252;28;20192;-69
2023/12/04 06:02:02;;;;;;;10.23;8.03;;;2.10;99.90;;;;;;5076579;28;20195;-69
2023/12/04 06:04:28;;;;;;;12.13;8.73;;;2.10;99.90;;;;;;5089357;28;20172;-69
2023/12/04 06:06:54;;;;;;;12.63;8.87;;;2.10;99.90;;;;;;5076090;28;20195;-68
2023/12/04 06:09:22;;;;;;;12.30;8.50;;;2.10;99.90;;;;;;5072541;28;20181;-69
2023/12/04 06:11:47;;;;;;;11.63;8.50;;;2.10;99.90;;;;;;5075915;28;20209;-69
2023/12/04 06:14:15;;;;;;;12.37;9.03;;;2.10;99.90;;;;;;5076306;28;20268;-68
2023/12/04 06:16:43;;;;;;;11.37;8.60;;;2.10;99.90;;;;;;5076586;28;20181;-69
2023/12/04 06:19:09;;;;;;;14.33;10.00;;;2.10;99.90;;;;;;5076161;28;20176;-69
2023/12/04 06:21:34;;;;;;;12.07;8.83;;;2.10;99.90;;;;;;5071413;28;20245;-68
2023/12/04 06:24:03;;;;;;;11.70;7.97;;;2.10;99.90;;;;;;5068349;28;20205;-69
2023/12/04 06:26:31;;;;;;;10.47;7.50;;;2.10;99.90;;;;;;5076080;28;20172;-68
2023/12/04 06:28:57;;;;;;;12.13;8.60;;;2.10;99.90;;;;;;5076132;28;20168;-72
2023/12/04 06:31:23;;;;;;;11.50;8.30;;;2.10;99.90;;;;;;5076240;28;20218;-74
2023/12/04 06:33:49;;;;;;;10.97;8.20;;;2.10;99.90;;;;;;5077523;28;20195;-73
2023/12/04 06:36:17;;;;;;;10.43;7.80;;;2.10;99.90;;;;;;5076660;28;20208;-69
2023/12/04 06:38:44;;;;;;;12.73;7.63;;;2.20;99.90;;;;;;5075850;28;20241;-69
2023/12/04 06:41:13;;;;;;;9.50;7.00;;;2.20;99.90;;;;;;5075241;28;20287;-69
2023/12/04 06:43:41;;;;;;;10.90;8.00;;;2.20;99.90;;;;;;5074381;28;20176;-68
2023/12/04 06:46:08;;;;;;;11.30;8.07;;;2.20;99.90;;;;;;5067204;28;20181;-68
2023/12/04 06:48:34;;;;;;;10.63;7.57;;;2.20;99.90;;;;;;5077296;28;20208;-68
2023/12/04 06:50:59;;;;;;;11.80;8.47;;;2.20;99.90;;;;;;5075378;28;20192;-68
2023/12/04 06:53:25;;;;;;;11.80;7.63;;;2.20;99.90;;;;;;5075380;28;20201;-69
2023/12/04 06:55:53;;;;;;;8.80;6.70;;;2.20;99.90;;;;;;5080205;28;20184;-68
2023/12/04 06:58:19;;;;;;;9.90;6.97;;;2.20;99.90;;;;;;5075275;28;20173;-68
2023/12/04 07:00:44;;;;;;;8.10;6.60;;;2.20;99.90;;;;;;5106347;28;20187;-68
2023/12/04 07:03:10;;;;;;;8.83;6.43;;;2.30;99.90;;;;;;5075278;28;20227;-68
2023/12/04 07:05:35;;;;;;;8.67;6.27;;;2.30;99.90;;;;;;5075355;28;20257;-68
2023/12/04 07:08:01;;;;;;;8.30;6.30;;;2.30;99.90;;;;;;5092333;28;20234;-68
2023/12/04 07:10:28;;;;;;;10.00;6.97;;;2.30;99.90;;;;;;5083554;28;20227;-68
2023/12/04 07:12:56;;;;;;;9.60;6.77;;;2.30;99.90;;;;;;5074914;28;20181;-68
2023/12/04 07:15:22;;;;;;;8.40;6.50;;;2.40;99.90;;;;;;5075290;28;20199;-68
2023/12/04 07:17:50;;;;;;;8.50;6.47;;;2.40;99.90;;;;;;5061974;28;20208;-69
2023/12/04 07:20:18;;;;;;;9.07;6.60;;;2.50;99.90;;;;;;5073252;28;20177;-68
2023/12/04 07:22:44;;;;;;;10.27;7.00;;;2.50;99.90;;;;;;5076438;28;20187;-68
2023/12/04 07:25:10;;;;;;;8.67;6.30;;;2.50;99.90;;;;;;5074838;28;20180;-68
2023/12/04 07:27:40;;;;;;;11.03;7.20;;;2.50;99.90;;;;;;5074886;28;20177;-68
2023/12/04 07:30:06;;;;;;;10.57;7.20;;;2.50;99.90;;;;;;5054908;28;20201;-68
2023/12/04 07:32:32;;;;;;;10.03;7.23;;;2.50;99.90;;;;;;5056740;28;20184;-68
2023/12/04 07:34:58;;;;;;;10.57;7.60;;;2.70;99.90;;;;;;5074649;28;20253;-68
2023/12/04 07:37:30;;;;;;;10.60;7.53;;;2.50;99.90;;;;;;5074643;28;20200;-68
2023/12/04 07:39:57;;;;;;;10.83;7.57;;;2.60;99.90;;;;;;5074195;28;20193;-68
2023/12/04 07:42:28;;;;;;;10.17;7.40;;;2.60;99.90;;;;;;5074588;28;20240;-69
2023/12/04 07:44:53;;;;;;;8.93;6.83;;;2.60;99.90;;;;;;5074084;28;20192;-68
2023/12/04 07:47:19;;;;;;;10.30;7.20;;;2.60;99.90;;;;;;5074675;28;20172;-69
2023/12/04 07:49:45;;;;;;;9.10;7.00;;;2.70;99.90;;;;;;5074679;28;20181;-71
2023/12/04 07:52:13;;;;;;;10.67;7.30;;;2.60;99.90;;;;;;5074292;28;20212;-69
2023/12/04 07:54:39;;;;;;;10.23;7.97;;;2.60;99.90;;;;;;5076842;28;20218;-69
2023/12/04 07:57:04;;;;;;;10.63;7.60;;;2.60;99.90;;;;;;5081396;28;20176;-68
2023/12/04 07:59:32;;;;;;;10.97;7.80;;;2.60;99.90;;;;;;5081032;28;20204;-69
2023/12/04 08:01:58;;;;;;;9.73;7.80;;;2.60;99.90;;;;;;5097947;28;20176;-69
2023/12/04 08:04:24;;;;;;;10.60;7.73;;;2.50;99.90;;;;;;5090085;28;20276;-68
2023/12/04 08:06:52;;;;;;;10.67;6.97;;;2.50;99.90;;;;;;5080821;28;20202;-69
2023/12/04 08:09:17;;;;;;;11.23;8.00;;;2.50;99.90;;;;;;5090221;28;20180;-69
2023/12/04 08:11:43;;;;;;;10.23;7.43;;;2.50;99.90;;;;;;5080969;28;20218;-69
2023/12/04 08:14:09;;;;;;;9.70;7.47;;;2.50;99.90;;;;;;5081094;28;20229;-69
2023/12/04 08:16:39;;;;;;;10.20;7.20;;;2.50;99.90;;;;;;5081259;28;20259;-69
2023/12/04 08:19:04;;;;;;;10.93;7.90;;;2.50;99.90;;;;;;5080803;28;20176;-69
2023/12/04 08:21:32;;;;;;;10.63;7.30;;;2.50;99.90;;;;;;5081085;28;20172;-69
2023/12/04 08:23:58;;;;;;;10.87;7.53;;;2.50;99.90;;;;;;5082443;28;20196;-70
2023/12/04 08:26:24;;;;;;;9.90;7.50;;;2.50;99.90;;;;;;5081290;28;20173;-68
2023/12/04 08:28:53;;;;;;;10.57;7.60;;;2.50;99.90;;;;;;5081156;28;20184;-68
2023/12/04 08:31:24;;;;;;;11.07;7.00;;;2.50;99.90;;;;;;5080811;28;20212;-68
2023/12/04 08:33:49;;;;;;;11.60;7.03;;;2.60;99.90;;;;;;5080774;28;20164;-69
2023/12/04 08:36:15;;;;;;;8.87;6.63;;;2.60;99.90;;;;;;5082313;28;20264;-68
2023/12/04 08:38:41;;;;;;;8.80;6.73;;;2.60;99.90;;;;;;5081077;28;20188;-68
2023/12/04 08:41:09;;;;;;;9.03;6.87;;;2.60;99.90;;;;;;5080921;28;20183;-68
2023/12/04 08:43:34;;;;;;;9.20;6.83;;;2.60;99.90;;;;;;5080646;28;20218;-68
2023/12/04 08:46:00;;;;;;;9.50;6.67;;;2.60;99.90;;;;;;5080798;28;20176;-68
2023/12/04 08:48:26;;;;;;;8.60;6.77;;;2.70;99.90;;;;;;5096929;28;20180;-68
2023/12/04 08:50:51;;;;;;;9.17;6.60;;;2.70;99.90;;;;;;5080891;28;20275;-68
2023/12/04 08:53:17;;;;;;;9.87;7.23;;;2.70;99.90;;;;;;5080856;28;20199;-69
2023/12/04 08:55:44;;;;;;;9.10;6.73;;;2.70;99.90;;;;;;5080738;28;20192;-70
2023/12/04 08:58:10;;;;;;;9.83;7.10;;;2.70;99.90;;;;;;5080796;28;20267;-69
2023/12/04 09:00:37;;;;;;;9.47;7.07;;;2.70;99.90;;;;;;5080936;28;20203;-70
2023/12/04 09:03:07;;;;;;;9.13;6.67;;;2.70;99.90;;;;;;5081113;28;20176;-69
2023/12/04 09:05:35;;;;;;;10.90;6.33;;;2.70;99.90;;;;;;5080642;28;20169;-69
2023/12/04 09:08:03;;;;;;;9.03;6.17;;;2.70;99.90;;;;;;5076626;28;20196;-70
2023/12/04 09:10:29;;;;;;;10.30;6.23;;;2.80;99.90;;;;;;5057440;28;20197;-70
2023/12/04 09:12:55;;;;;;;8.63;6.53;;;2.80;99.90;;;;;;5057920;28;20177;-69
2023/12/04 09:15:20;;;;;;;8.27;6.23;;;2.80;99.90;;;;;;5071263;28;20228;-68
2023/12/04 09:17:46;;;;;;;9.87;6.50;;;2.80;99.90;;;;;;5077442;28;20169;-69
2023/12/04 09:20:11;;;;;;;9.00;6.77;;;2.80;99.90;;;;;;5074239;28;20185;-70
2023/12/04 09:22:40;;;;;;;9.23;6.87;;;2.90;99.90;;;;;;5077236;28;20176;-70
2023/12/04 09:25:08;;;;;;;9.03;6.37;;;2.80;99.90;;;;;;5094332;28;20172;-70
2023/12/04 09:27:34;;;;;;;8.77;6.50;;;2.90;99.90;;;;;;5077251;28;20204;-69
2023/12/04 09:30:00;;;;;;;9.70;6.70;;;2.90;99.90;;;;;;5077286;28;20206;-69
2023/12/04 09:32:25;;;;;;;8.00;6.20;;;2.90;99.90;;;;;;5077181;28;20172;-69
2023/12/04 09:34:53;;;;;;;9.40;6.43;;;2.90;99.90;;;;;;5076671;28;20283;-69
2023/12/04 09:37:19;;;;;;;8.70;6.27;;;2.90;99.90;;;;;;5076618;28;20212;-68
2023/12/04 09:39:49;;;;;;;9.70;6.87;;;3.00;99.90;;;;;;5076670;28;20193;-69
2023/12/04 09:42:18;;;;;;;8.93;7.07;;;3.00;99.90;;;;;;5076423;28;20246;-69
2023/12/04 09:44:44;;;;;;;9.30;6.87;;;3.00;99.90;;;;;;5076823;28;20183;-69
2023/12/04 09:47:10;;;;;;;8.87;6.23;;;3.00;99.90;;;;;;5110158;28;20177;-69
2023/12/04 09:49:37;;;;;;;8.37;6.20;;;3.10;99.90;;;;;;5095181;28;20184;-69
2023/12/04 09:52:04;;;;;;;9.23;6.60;;;3.10;99.90;;;;;;5076048;28;20197;-69
2023/12/04 09:54:30;;;;;;;8.37;6.00;;;3.10;99.90;;;;;;5076953;28;20177;-69
2023/12/04 09:56:57;;;;;;;9.57;6.53;;;3.10;99.90;;;;;;5076554;28;20198;-69
2023/12/04 09:59:29;;;;;;;8.40;6.17;;;3.10;99.90;;;;;;5076412;28;20203;-69
2023/12/04 10:01:54;;;;;;;8.47;5.97;;;3.20;99.90;;;;;;5076444;28;20225;-69
2023/12/04 10:04:21;;;;;;;11.00;6.50;;;3.20;99.90;;;;;;5076583;28;20168;-69
2023/12/04 10:06:50;;;;;;;8.30;6.07;;;3.20;99.90;;;;;;5076090;28;20180;-69
2023/12/04 10:09:17;;;;;;;9.17;6.57;;;3.30;99.90;;;;;;5078519;28;20255;-69
2023/12/04 10:11:50;;;;;;;9.13;6.80;;;3.30;99.90;;;;;;5076104;28;20215;-67
2023/12/04 10:14:22;;;;;;;9.10;6.60;;;3.30;99.90;;;;;;5076508;28;20170;-69
2023/12/04 10:16:50;;;;;;;9.67;6.97;;;3.20;99.90;;;;;;5075547;28;20294;-69
2023/12/04 10:19:29;;;;;;;9.07;6.80;;;3.20;99.90;;;;;;5076576;28;20179;-69
2023/12/04 10:22:00;;;;;;;10.13;6.60;;;3.20;99.90;;;;;;5076058;28;20173;-69
2023/12/04 10:24:39;;;;;;;9.53;6.90;;;3.20;99.90;;;;;;5075691;28;20254;-69
2023/12/04 10:27:08;;;;;;;11.83;7.03;;;3.20;99.90;;;;;;5075869;28;20185;-70
2023/12/04 10:29:52;;;;;;;9.83;7.00;;;3.20;99.90;;;;;;5075910;28;20210;-70
2023/12/04 10:32:23;;;;;;;9.17;6.27;;;3.20;99.90;;;;;;5055972;28;20180;-70
2023/12/04 10:34:49;;;;;;;8.03;5.93;;;3.20;99.90;;;;;;5072281;28;20180;-69
2023/12/04 10:37:15;;;;;;;8.17;6.00;;;3.20;99.90;;;;;;5085126;28;20197;-70
2023/12/04 10:39:51;;;;;;;7.97;5.90;;;3.20;99.90;;;;;;5075597;28;20214;-69
2023/12/04 10:42:30;;;;;;;9.80;6.77;;;3.20;99.90;;;;;;5075907;28;20186;-70
2023/12/04 10:44:57;;;;;;;8.20;5.93;;;3.30;99.90;;;;;;5075917;28;20203;-69
2023/12/04 10:47:23;;;;;;;9.40;7.13;;;3.30;99.90;;;;;;5092090;28;20188;-69
2023/12/04 10:49:52;;;;;;;8.63;6.20;;;3.30;99.90;;;;;;5086565;28;20261;-70
2023/12/04 10:52:21;;;;;;;8.27;5.80;;;3.40;99.90;;;;;;5075087;28;20301;-69
2023/12/04 10:54:47;;;;;;;9.13;6.43;;;3.40;99.90;;;;;;5092452;28;20179;-70
2023/12/04 10:57:26;;;;;;;9.90;6.33;;;3.40;99.90;;;;;;5085235;28;20237;-69
2023/12/04 11:00:02;;;;;;;8.13;6.07;;;3.40;99.90;;;;;;5075221;28;20181;-69
2023/12/04 11:02:35;;;;;;;8.27;6.50;;;3.40;99.90;;;;;;5055155;28;20208;-69
2023/12/04 11:05:07;;;;;;;8.63;6.23;;;3.40;99.90;;;;;;5069033;28;20215;-69
2023/12/04 11:07:35;;;;;;;8.80;6.60;;;3.40;99.90;;;;;;5065205;28;20521;-69
2023/12/04 11:10:05;;;;;;;9.30;6.77;;;3.40;99.90;;;;;;5071712;28;20177;-68
2023/12/04 11:12:34;;;;;;;8.53;6.57;;;3.40;99.90;;;;;;5065951;28;20176;-69
2023/12/04 11:15:07;;;;;;;9.43;6.90;;;3.40;99.90;;;;;;5074965;28;20193;-70
2023/12/04 11:17:39;;;;;;;9.63;7.10;;;3.40;99.90;;;;;;5074946;28;20260;-69
2023/12/04 11:20:18;;;;;;;8.87;6.50;;;3.40;99.90;;;;;;5071261;28;20166;-68
2023/12/04 11:22:48;;;;;;;8.27;6.00;;;3.30;99.90;;;;;;5074982;28;20233;-69
2023/12/04 11:25:15;;;;;;;7.93;6.07;;;3.30;99.90;;;;;;5074711;28;20186;-69
2023/12/04 11:27:42;;;;;;;7.77;5.57;;;3.30;99.90;;;;;;5097407;28;20219;-68
2023/12/04 11:30:12;;;;;;;8.17;5.80;;;3.30;99.90;;;;;;5074364;28;20424;-69
2023/12/04 11:32:49;;;;;;;8.30;6.17;;;3.30;99.90;;;;;;5057360;28;20226;-69
2023/12/04 11:35:17;;;;;;;8.53;5.73;;;3.30;99.90;;;;;;5074192;28;20238;-68
2023/12/04 11:37:46;;;;;;;9.80;6.60;;;3.30;99.90;;;;;;5074861;28;20203;-68
2023/12/04 11:40:15;;;;;;;8.60;6.27;;;3.30;99.90;;;;;;5074703;28;20258;-68
2023/12/04 11:42:41;;;;;;;9.33;6.40;;;3.30;99.90;;;;;;5074926;28;20245;-68
2023/12/04 11:45:09;;;;;;;8.33;6.07;;;3.20;99.90;;;;;;5074979;28;20200;-68
2023/12/04 11:47:52;;;;;;;8.70;6.03;;;3.20;99.90;;;;;;5074588;28;20375;-68
2023/12/04 11:50:21;;;;;;;7.73;5.70;;;3.20;99.90;;;;;;5076388;28;20287;-69
2023/12/04 11:52:50;;;;;;;10.17;6.57;;;3.20;99.90;;;;;;5074677;28;20193;-69
2023/12/04 11:55:21;;;;;;;8.53;6.60;;;3.30;99.90;;;;;;5074881;28;20168;-69
2023/12/04 11:57:50;;;;;;;8.83;5.77;;;3.20;99.90;;;;;;5096513;28;20234;-69
2023/12/04 12:00:22;;;;;;;8.40;6.13;;;3.30;99.90;;;;;;5074756;28;20180;-69
2023/12/04 12:02:54;;;;;;;8.03;6.07;;;3.20;99.90;;;;;;5074984;28;20168;-69
2023/12/04 12:05:26;;;;;;;9.83;6.10;;;3.20;99.90;;;;;;5074398;28;20205;-68
2023/12/04 12:07:52;;;;;;;9.53;6.50;;;3.20;99.90;;;;;;5074325;28;20169;-70
2023/12/04 12:10:17;;;;;;;9.00;7.00;;;3.20;99.90;;;;;;5091234;28;20207;-69
2023/12/04 12:12:43;;;;;;;9.27;6.47;;;3.20;99.90;;;;;;5072466;28;20195;-69
2023/12/04 12:15:13;;;;;;;7.60;5.47;;;3.20;99.90;;;;;;5063967;28;20216;-69
2023/12/04 12:17:41;;;;;;;7.97;5.47;;;3.30;99.90;;;;;;5074569;28;20197;-70
2023/12/04 12:20:09;;;;;;;9.07;6.30;;;3.20;99.90;;;;;;5074017;28;20218;-69
2023/12/04 12:22:41;;;;;;;7.60;5.70;;;3.20;99.90;;;;;;5074563;28;20195;-70
2023/12/04 12:25:13;;;;;;;7.63;5.63;;;3.20;99.90;;;;;;5074511;28;20200;-70
2023/12/04 12:27:39;;;;;;;6.73;5.40;;;3.20;99.90;;;;;;5074386;28;20177;-69
2023/12/04 12:30:09;;;;;;;8.60;6.33;;;3.30;99.90;;;;;;5069403;28;20183;-69
2023/12/04 12:32:38;;;;;;;8.87;5.40;;;3.30;99.90;;;;;;5072822;28;20177;-69
2023/12/04 12:35:04;;;;;;;7.90;5.57;;;3.30;99.90;;;;;;5063547;28;20205;-69
2023/12/04 12:37:36;;;;;;;7.00;5.23;;;3.30;99.90;;;;;;5074210;28;20228;-69
2023/12/04 12:40:04;;;;;;;7.73;5.80;;;3.30;99.90;;;;;;5073911;28;20268;-69
2023/12/04 12:42:30;;;;;;;7.37;5.17;;;3.30;99.90;;;;;;5075957;28;20188;-70
2023/12/04 12:45:03;;;;;;;7.33;5.50;;;3.30;99.90;;;;;;5078010;28;20172;-69
2023/12/04 12:47:34;;;;;;;7.63;5.10;;;3.40;99.90;;;;;;5077980;28;20173;-70
2023/12/04 12:50:02;;;;;;;7.93;5.63;;;3.40;99.90;;;;;;5077100;28;20219;-69
2023/12/04 12:52:33;;;;;;;6.43;4.87;;;3.40;99.90;;;;;;5077388;28;20260;-70
2023/12/04 12:54:59;;;;;;;8.60;6.03;;;3.50;99.90;;;;;;5077832;28;20172;-71